createdAt,value
2022-11-16T00:02:20.855Z,4.82
2022-11-16T00:04:47.645Z,4.70
2022-11-16T00:07:14.412Z,4.73
2022-11-16T00:09:41.084Z,4.75
2022-11-16T00:12:10.694Z,4.80
2022-11-16T00:14:37.764Z,4.80
2022-11-16T00:17:04.470Z,4.67
2022-11-16T00:19:31.249Z,4.79
2022-11-16T00:21:58.073Z,4.81
2022-11-16T00:24:24.879Z,4.66
2022-11-16T00:26:53.974Z,4.80
2022-11-16T00:29:23.075Z,4.70
2022-11-16T00:31:50.285Z,4.78
2022-11-16T00:34:20.044Z,4.75
2022-11-16T00:36:46.977Z,4.76
2022-11-16T00:39:14.779Z,4.83
2022-11-16T00:41:44.874Z,4.73
2022-11-16T00:44:12.700Z,4.69
2022-11-16T00:46:40.153Z,4.82
2022-11-16T00:49:07.283Z,4.82
2022-11-16T00:51:35.320Z,4.84
2022-11-16T00:54:02.564Z,4.87
2022-11-16T00:56:29.163Z,4.79
2022-11-16T00:58:55.876Z,4.80
2022-11-16T01:01:22.742Z,4.78
2022-11-16T01:03:49.582Z,4.79
2022-11-16T01:06:20.309Z,4.85
2022-11-16T01:08:47.050Z,4.84
2022-11-16T01:11:33.480Z,4.88
2022-11-16T01:14:02.433Z,4.70
2022-11-16T01:16:29.696Z,4.81
2022-11-16T01:18:56.470Z,4.90
2022-11-16T01:21:24.759Z,4.92
2022-11-16T01:23:52.146Z,4.86
2022-11-16T01:26:19.075Z,4.86
2022-11-16T01:28:45.731Z,4.97
2022-11-16T01:31:12.687Z,4.88
2022-11-16T01:33:39.332Z,4.90
2022-11-16T01:36:14.806Z,4.93
2022-11-16T01:38:46.422Z,4.95
2022-11-16T01:41:14.517Z,4.84
2022-11-16T01:43:59.787Z,4.93
2022-11-16T01:46:27.717Z,4.89
2022-11-16T01:49:06.817Z,4.90
2022-11-16T01:51:34.157Z,4.90
2022-11-16T01:54:03.252Z,4.89
2022-11-16T01:56:31.258Z,4.88
2022-11-16T01:58:58.001Z,4.91
2022-11-16T02:01:24.665Z,4.94
2022-11-16T02:03:51.307Z,4.93
2022-11-16T02:06:27.022Z,4.98
2022-11-16T02:09:24.623Z,5.03
2022-11-16T02:12:28.872Z,5.00
2022-11-16T02:15:02.422Z,4.99
2022-11-16T02:18:26.385Z,5.03
2022-11-16T02:21:10.386Z,5.12
2022-11-16T02:24:01.728Z,5.14
2022-11-16T02:26:50.403Z,5.04
2022-11-16T02:29:47.734Z,5.04
2022-11-16T02:32:32.989Z,5.07
2022-11-16T02:35:24.353Z,5.09
2022-11-16T02:37:56.373Z,5.20
2022-11-16T02:40:24.754Z,5.16
2022-11-16T02:42:54.867Z,5.18
2022-11-16T02:45:30.319Z,5.18
2022-11-16T02:48:01.278Z,5.23
2022-11-16T02:50:28.650Z,5.24
2022-11-16T02:52:55.767Z,5.14
2022-11-16T02:55:24.022Z,5.11
2022-11-16T02:57:56.025Z,5.18
2022-11-16T03:00:25.416Z,5.18
2022-11-16T03:03:13.849Z,5.24
2022-11-16T03:05:55.280Z,5.31
2022-11-16T03:08:26.115Z,5.26
2022-11-16T03:11:20.681Z,5.17
2022-11-16T03:13:48.707Z,5.11
2022-11-16T03:16:20.284Z,5.16
2022-11-16T03:18:48.197Z,5.20
2022-11-16T03:21:30.534Z,5.26
2022-11-16T03:23:57.695Z,5.20
2022-11-16T03:26:28.075Z,5.22
2022-11-16T03:29:02.968Z,5.37
2022-11-16T03:31:39.393Z,5.28
2022-11-16T03:34:10.888Z,5.23
2022-11-16T03:36:40.760Z,5.28
2022-11-16T03:39:12.176Z,5.27
2022-11-16T03:41:41.792Z,5.27
2022-11-16T03:44:10.880Z,5.27
2022-11-16T03:46:38.542Z,5.36
2022-11-16T03:49:06.232Z,5.40
2022-11-16T03:51:33.305Z,5.30
2022-11-16T03:54:00.117Z,5.29
2022-11-16T03:56:26.872Z,5.41
2022-11-16T03:58:53.639Z,5.46
2022-11-16T04:01:20.271Z,5.28
2022-11-16T04:03:46.928Z,5.40
2022-11-16T04:06:32.415Z,5.47
2022-11-16T04:09:28.041Z,5.41
2022-11-16T04:12:13.297Z,5.45
2022-11-16T04:14:59.118Z,5.51
2022-11-16T04:17:44.442Z,5.44
2022-11-16T04:20:31.791Z,5.48
2022-11-16T04:23:20.901Z,5.51
2022-11-16T04:25:48.678Z,5.50
2022-11-16T04:28:16.762Z,5.44
2022-11-16T04:31:09.399Z,5.54
2022-11-16T04:33:54.603Z,5.45
2022-11-16T04:36:39.990Z,5.46
2022-11-16T04:39:07.130Z,5.53
2022-11-16T04:41:52.417Z,5.65
2022-11-16T04:44:19.425Z,5.60
2022-11-16T04:47:04.575Z,5.56
2022-11-16T04:49:31.160Z,5.70
2022-11-16T04:51:57.828Z,5.72
2022-11-16T04:54:24.434Z,5.73
2022-11-16T04:56:51.044Z,5.68
2022-11-16T04:59:17.658Z,5.67
2022-11-16T05:02:02.867Z,5.68
2022-11-16T05:04:29.564Z,5.63
2022-11-16T05:06:56.309Z,5.79
2022-11-16T05:09:23.112Z,5.82
2022-11-16T05:11:50.429Z,5.76
2022-11-16T05:14:17.049Z,5.75
2022-11-16T05:16:43.801Z,5.64
2022-11-16T05:19:29.152Z,5.73
2022-11-16T05:21:55.751Z,5.69
2022-11-16T05:24:34.308Z,5.61
2022-11-16T05:27:06.198Z,5.73
2022-11-16T05:29:33.202Z,5.54
2022-11-16T05:32:00.589Z,5.71
2022-11-16T05:34:27.575Z,5.72
2022-11-16T05:36:54.548Z,5.64
2022-11-16T05:39:21.433Z,5.73
2022-11-16T05:41:48.285Z,5.76
2022-11-16T05:44:15.461Z,5.78
2022-11-16T05:46:42.587Z,5.73
2022-11-16T05:49:09.861Z,5.81
2022-11-16T05:51:36.932Z,5.69
2022-11-16T05:54:04.387Z,5.72
2022-11-16T05:56:31.670Z,5.62
2022-11-16T05:58:58.375Z,5.73
2022-11-16T06:01:25.482Z,5.73
2022-11-16T06:03:52.601Z,5.73
2022-11-16T06:06:20.331Z,5.71
2022-11-16T06:08:47.216Z,5.69
2022-11-16T06:11:14.055Z,5.76
2022-11-16T06:13:40.616Z,5.78
2022-11-16T06:16:07.584Z,5.70
2022-11-16T06:18:37.683Z,5.74
2022-11-16T06:21:04.413Z,5.76
2022-11-16T06:23:31.002Z,5.68
2022-11-16T06:25:57.640Z,5.78
2022-11-16T06:28:24.427Z,5.76
2022-11-16T06:30:51.125Z,5.77
2022-11-16T06:33:18.090Z,5.77
2022-11-16T06:35:45.019Z,5.63
2022-11-16T06:38:13.764Z,5.60
2022-11-16T06:40:40.419Z,5.55
2022-11-16T06:43:07.019Z,5.62
2022-11-16T06:45:33.682Z,5.58
2022-11-16T06:48:00.344Z,5.68
2022-11-16T06:50:26.997Z,5.59
2022-11-16T06:52:54.040Z,5.54
2022-11-16T06:55:20.739Z,5.47
2022-11-16T06:57:47.430Z,5.58
2022-11-16T07:00:14.792Z,5.70
2022-11-16T07:02:41.458Z,5.57
2022-11-16T07:05:08.387Z,5.52
2022-11-16T07:07:35.030Z,5.63
2022-11-16T07:10:01.985Z,5.60
2022-11-16T07:12:28.643Z,5.61
2022-11-16T07:14:55.261Z,5.68
2022-11-16T07:17:21.981Z,5.56
2022-11-16T07:19:48.577Z,5.65
2022-11-16T07:22:15.267Z,5.64
2022-11-16T07:24:41.825Z,5.69
2022-11-16T07:27:08.915Z,5.65
2022-11-16T07:29:35.589Z,5.65
2022-11-16T07:32:02.195Z,5.49
2022-11-16T07:34:28.837Z,5.54
2022-11-16T07:36:55.574Z,5.51
2022-11-16T07:39:22.238Z,5.59
2022-11-16T07:41:52.969Z,5.60
2022-11-16T07:44:20.270Z,5.65
2022-11-16T07:46:48.099Z,5.59
2022-11-16T07:49:16.623Z,5.61
2022-11-16T07:51:43.296Z,5.64
2022-11-16T07:54:13.903Z,5.62
2022-11-16T07:56:40.968Z,5.76
2022-11-16T07:59:07.974Z,5.70
2022-11-16T08:01:34.681Z,5.78
2022-11-16T08:04:04.277Z,5.67
2022-11-16T08:06:31.573Z,5.80
2022-11-16T08:08:59.076Z,5.72
2022-11-16T08:11:26.124Z,5.61
2022-11-16T08:13:56.094Z,5.76
2022-11-16T08:16:23.104Z,5.71
2022-11-16T08:18:49.827Z,5.76
2022-11-16T08:21:18.395Z,5.71
2022-11-16T08:23:45.501Z,5.72
2022-11-16T08:26:15.338Z,5.63
2022-11-16T08:28:43.584Z,5.52
2022-11-16T08:31:12.815Z,5.71
2022-11-16T08:33:39.765Z,5.60
2022-11-16T08:36:13.821Z,5.56
2022-11-16T08:38:40.954Z,5.62
2022-11-16T08:41:07.750Z,5.63
2022-11-16T08:43:35.877Z,5.68
2022-11-16T08:46:03.240Z,5.74
2022-11-16T08:48:29.953Z,5.74
2022-11-16T08:51:16.854Z,5.82
2022-11-16T08:53:44.479Z,5.69
2022-11-16T08:56:13.306Z,5.71
2022-11-16T08:58:43.475Z,5.78
2022-11-16T09:01:11.924Z,5.80
2022-11-16T09:03:38.955Z,5.80
2022-11-16T09:06:06.603Z,5.79
2022-11-16T09:08:33.829Z,5.59
2022-11-16T09:11:04.390Z,5.66
2022-11-16T09:13:31.033Z,5.77
2022-11-16T09:16:01.536Z,5.83
2022-11-16T09:18:28.947Z,5.85
2022-11-16T09:20:55.780Z,5.80
2022-11-16T09:23:25.611Z,5.76
2022-11-16T09:25:53.162Z,5.84
2022-11-16T09:28:20.468Z,5.81
2022-11-16T09:30:49.161Z,5.85
2022-11-16T09:33:16.134Z,5.92
2022-11-16T09:35:42.728Z,5.98
2022-11-16T09:38:17.567Z,5.98
2022-11-16T09:40:48.697Z,5.95
2022-11-16T09:43:46.068Z,5.93
2022-11-16T09:46:34.512Z,6.04
2022-11-16T09:49:03.999Z,5.99
2022-11-16T09:51:32.853Z,5.93
2022-11-16T09:54:06.075Z,6.00
2022-11-16T09:56:37.519Z,5.90
2022-11-16T09:59:18.170Z,6.00
2022-11-16T10:01:48.999Z,6.09
2022-11-16T10:04:58.128Z,6.13
2022-11-16T10:07:42.533Z,6.11
2022-11-16T10:10:17.002Z,6.14
2022-11-16T10:12:54.895Z,6.13
2022-11-16T10:15:26.718Z,6.10
2022-11-16T10:17:56.299Z,6.19
2022-11-16T10:20:54.871Z,6.19
2022-11-16T10:23:37.370Z,6.27
2022-11-16T10:26:27.356Z,6.10
2022-11-16T10:29:11.385Z,6.24
2022-11-16T10:32:02.192Z,6.17
2022-11-16T10:34:33.353Z,6.21
2022-11-16T10:37:03.882Z,6.23
2022-11-16T10:39:31.659Z,6.31
2022-11-16T10:42:07.114Z,6.31
2022-11-16T10:44:38.868Z,6.28
2022-11-16T10:47:33.585Z,6.40
2022-11-16T10:50:04.063Z,6.33
2022-11-16T10:52:30.761Z,6.29
2022-11-16T10:54:57.356Z,6.24
2022-11-16T10:57:26.549Z,6.25
2022-11-16T10:59:58.995Z,6.26
2022-11-16T11:02:35.993Z,6.23
2022-11-16T11:05:22.747Z,6.29
2022-11-16T11:08:02.198Z,6.34
2022-11-16T11:10:31.762Z,6.29
2022-11-16T11:13:11.937Z,6.24
2022-11-16T11:15:40.323Z,6.41
2022-11-16T11:18:23.529Z,6.34
2022-11-16T11:21:06.333Z,6.29
2022-11-16T11:23:42.667Z,6.42
2022-11-16T11:26:24.915Z,6.40
2022-11-16T11:28:51.628Z,6.45
2022-11-16T11:31:26.227Z,6.31
2022-11-16T11:33:59.597Z,6.34
2022-11-16T11:36:28.988Z,6.37
2022-11-16T11:39:05.222Z,6.39
2022-11-16T11:41:43.681Z,6.20
2022-11-16T11:44:13.161Z,6.18
2022-11-16T11:47:18.618Z,6.16
2022-11-16T11:49:36.168Z,6.19
2022-11-16T11:52:09.237Z,6.20
2022-11-16T11:54:43.149Z,6.20
2022-11-16T11:57:15.711Z,6.20
2022-11-16T11:59:42.340Z,6.30
2022-11-16T12:02:39.902Z,6.27
2022-11-16T12:05:44.010Z,6.18
2022-11-16T12:08:38.612Z,6.27
2022-11-16T12:11:29.710Z,6.23
2022-11-16T12:14:22.420Z,6.23
2022-11-16T12:17:07.374Z,6.32
2022-11-16T12:20:07.533Z,6.37
2022-11-16T12:22:37.032Z,6.20
2022-11-16T12:25:19.793Z,6.32
2022-11-16T12:28:15.144Z,6.25
2022-11-16T12:30:57.834Z,6.36
2022-11-16T12:33:36.902Z,6.27
2022-11-16T12:36:17.801Z,6.28
2022-11-16T12:38:59.874Z,6.17
2022-11-16T12:41:26.396Z,6.31
2022-11-16T12:44:01.086Z,6.27
2022-11-16T12:46:58.418Z,6.29
2022-11-16T12:49:44.667Z,6.21
2022-11-16T12:52:11.314Z,6.28
2022-11-16T12:55:11.042Z,6.25
2022-11-16T12:58:02.871Z,6.25
2022-11-16T13:00:35.379Z,6.25
2022-11-16T13:03:10.188Z,6.24
2022-11-16T13:05:42.869Z,6.26
2022-11-16T13:08:36.269Z,6.35
2022-11-16T13:11:19.890Z,6.23
2022-11-16T13:13:53.394Z,6.32
2022-11-16T13:16:21.527Z,6.32
2022-11-16T13:18:48.317Z,6.34
2022-11-16T13:21:22.261Z,6.38
2022-11-16T13:24:16.946Z,6.34
2022-11-16T13:26:54.760Z,6.41
2022-11-16T13:29:43.393Z,6.34
2022-11-16T13:32:25.857Z,6.30
2022-11-16T13:34:52.972Z,6.31
2022-11-16T13:37:39.512Z,6.34
2022-11-16T13:40:06.117Z,6.32
2022-11-16T13:42:40.554Z,6.38
2022-11-16T13:45:19.627Z,6.35
2022-11-16T13:47:50.873Z,6.42
2022-11-16T13:50:20.002Z,6.37
2022-11-16T13:55:55.525Z,6.37
2022-11-16T13:58:23.657Z,6.43
2022-11-16T14:01:14.350Z,6.39
2022-11-16T14:03:51.729Z,6.43
2022-11-16T14:06:24.360Z,6.46
2022-11-16T14:08:55.392Z,6.43
2022-11-16T14:11:38.854Z,6.33
2022-11-16T14:14:10.133Z,6.36
2022-11-16T14:16:44.639Z,6.46
2022-11-16T14:19:49.289Z,6.32
2022-11-16T14:22:42.011Z,6.31
2022-11-16T14:25:22.728Z,6.34
2022-11-16T14:28:18.406Z,6.40
2022-11-16T14:31:07.808Z,6.39
2022-11-16T14:33:36.433Z,6.20
2022-11-16T14:36:05.152Z,6.32
2022-11-16T14:38:39.540Z,6.37
2022-11-16T14:41:10.877Z,6.35
2022-11-16T14:43:43.584Z,6.36
2022-11-16T14:46:20.620Z,6.32
2022-11-16T14:48:48.059Z,6.34
2022-11-16T14:51:24.750Z,6.40
2022-11-16T14:53:58.852Z,6.35
2022-11-16T14:56:25.518Z,6.29
2022-11-16T14:58:59.916Z,6.35
2022-11-16T15:01:31.907Z,6.11
2022-11-16T15:04:02.585Z,6.28
2022-11-16T15:06:41.210Z,6.33
2022-11-16T15:09:16.029Z,6.34
2022-11-16T15:12:01.908Z,6.27
2022-11-16T15:14:31.223Z,6.10
2022-11-16T15:16:59.338Z,6.24
2022-11-16T15:19:29.859Z,6.31
2022-11-16T15:21:59.569Z,6.29
2022-11-16T15:24:33.973Z,6.27
2022-11-16T15:27:06.602Z,6.36
2022-11-16T15:29:33.210Z,6.29
2022-11-16T15:31:59.804Z,6.26
2022-11-16T15:34:26.506Z,6.17
2022-11-16T15:36:53.316Z,6.21
2022-11-16T15:39:22.391Z,6.18
2022-11-16T15:41:49.198Z,6.18
2022-11-16T15:44:20.971Z,6.30
2022-11-16T15:46:49.541Z,6.13
2022-11-16T15:49:28.979Z,6.23
2022-11-16T15:51:57.144Z,6.21
2022-11-16T15:54:27.697Z,6.14
2022-11-16T15:56:56.935Z,6.10
2022-11-16T15:59:34.659Z,6.01
2022-11-16T16:02:01.475Z,6.09
2022-11-16T16:04:29.034Z,6.01
2022-11-16T16:06:59.721Z,6.09
2022-11-16T16:09:30.698Z,6.07
2022-11-16T16:12:19.400Z,6.05
2022-11-16T16:14:47.004Z,6.06
2022-11-16T16:17:23.318Z,6.04
2022-11-16T16:19:54.882Z,5.98
2022-11-16T16:22:27.828Z,6.04
2022-11-16T16:24:54.977Z,6.03
2022-11-16T16:27:24.296Z,5.96
2022-11-16T16:29:52.845Z,5.94
2022-11-16T16:32:24.854Z,6.00
2022-11-16T16:34:55.665Z,6.03
2022-11-16T16:37:22.481Z,6.03
2022-11-16T16:39:49.082Z,5.95
2022-11-16T16:42:17.047Z,5.97
2022-11-16T16:44:44.618Z,5.93
2022-11-16T16:47:11.854Z,5.96
2022-11-16T16:49:38.629Z,5.96
2022-11-16T16:52:06.094Z,5.89
2022-11-16T16:54:33.005Z,5.97
2022-11-16T16:57:01.517Z,5.87
2022-11-16T16:59:30.037Z,5.89
2022-11-16T17:01:57.678Z,5.97
2022-11-16T17:04:24.611Z,5.93
2022-11-16T17:06:52.051Z,5.84
2022-11-16T17:09:21.136Z,5.80
2022-11-16T17:11:47.823Z,5.88
2022-11-16T17:14:14.533Z,5.79
2022-11-16T17:16:41.351Z,5.80
2022-11-16T17:19:08.001Z,5.83
2022-11-16T17:21:34.620Z,5.81
2022-11-16T17:24:01.267Z,5.74
2022-11-16T17:26:29.500Z,5.57
2022-11-16T17:28:57.202Z,5.69
2022-11-16T17:31:25.549Z,5.69
2022-11-16T17:33:52.612Z,5.68
2022-11-16T17:36:19.387Z,5.65
2022-11-16T17:38:46.194Z,5.61
2022-11-16T17:41:14.758Z,5.66
2022-11-16T17:43:42.772Z,5.70
2022-11-16T17:46:14.527Z,5.55
2022-11-16T17:48:43.223Z,5.53
2022-11-16T17:51:11.574Z,5.59
2022-11-16T17:53:39.858Z,5.53
2022-11-16T17:56:07.352Z,5.59
2022-11-16T17:58:34.305Z,5.55
2022-11-16T18:01:01.046Z,5.50
2022-11-16T18:03:28.457Z,5.56
2022-11-16T18:06:15.726Z,5.59
2022-11-16T18:08:43.730Z,5.54
2022-11-16T18:11:15.898Z,5.45
2022-11-16T18:13:43.998Z,5.49
2022-11-16T18:16:15.165Z,5.48
2022-11-16T18:18:46.357Z,5.53
2022-11-16T18:21:20.443Z,5.52
2022-11-16T18:23:48.122Z,5.42
2022-11-16T18:26:21.101Z,5.46
2022-11-16T18:28:48.728Z,5.49
2022-11-16T18:31:18.493Z,5.44
2022-11-16T18:33:45.422Z,5.36
2022-11-16T18:36:12.653Z,5.34
2022-11-16T18:38:39.473Z,5.35
2022-11-16T18:41:06.126Z,5.27
2022-11-16T18:43:34.429Z,5.17
2022-11-16T18:46:01.438Z,5.17
2022-11-16T18:48:28.389Z,5.16
2022-11-16T18:51:02.316Z,5.19
2022-11-16T18:53:30.059Z,5.18
2022-11-16T18:55:58.289Z,5.11
2022-11-16T18:58:49.290Z,5.15
2022-11-16T19:01:14.639Z,5.20
2022-11-16T19:03:41.419Z,5.15
2022-11-16T19:06:09.447Z,5.14
2022-11-16T19:08:37.811Z,5.15
2022-11-16T19:11:13.058Z,5.08
2022-11-16T19:13:41.346Z,4.93
2022-11-16T19:16:09.248Z,4.86
2022-11-16T19:18:36.599Z,4.94
2022-11-16T19:21:08.521Z,4.89
2022-11-16T19:23:39.326Z,4.86
2022-11-16T19:26:06.862Z,4.88
2022-11-16T19:28:38.096Z,4.84
2022-11-16T19:31:12.904Z,4.83
2022-11-16T19:33:40.062Z,4.87
2022-11-16T19:36:16.658Z,4.87
2022-11-16T19:38:45.078Z,4.86
2022-11-16T19:41:13.493Z,4.78
2022-11-16T19:43:40.408Z,4.87
2022-11-16T19:46:12.178Z,4.86
2022-11-16T19:48:39.289Z,4.80
2022-11-16T19:51:14.828Z,4.91
2022-11-16T19:53:41.423Z,4.84
2022-11-16T19:56:10.702Z,4.66
2022-11-16T19:58:38.371Z,4.56
2022-11-16T20:01:07.268Z,4.67
2022-11-16T20:03:34.687Z,4.65
2022-11-16T20:06:10.146Z,4.61
2022-11-16T20:08:38.075Z,4.57
2022-11-16T20:11:18.154Z,4.48
2022-11-16T20:13:44.847Z,4.48
2022-11-16T20:16:12.339Z,4.45
2022-11-16T20:18:40.270Z,4.34
2022-11-16T20:21:07.821Z,4.36
2022-11-16T20:23:35.475Z,4.43
2022-11-16T20:26:07.470Z,4.37
2022-11-16T20:28:36.049Z,4.38
2022-11-16T20:31:05.298Z,4.27
2022-11-16T20:33:33.850Z,4.38
2022-11-16T20:36:08.794Z,4.36
2022-11-16T20:38:36.534Z,4.35
2022-11-16T20:41:17.709Z,4.25
2022-11-16T20:43:44.935Z,4.20
2022-11-16T20:46:13.477Z,4.25
2022-11-16T20:48:40.835Z,4.22
2022-11-16T20:51:08.825Z,4.16
2022-11-16T20:53:35.898Z,4.21
2022-11-16T20:56:04.080Z,4.19
2022-11-16T20:58:31.386Z,4.11
2022-11-16T21:01:19.414Z,3.99
2022-11-16T21:03:46.554Z,4.09
2022-11-16T21:06:13.828Z,4.15
2022-11-16T21:08:40.982Z,3.97
2022-11-16T21:11:16.048Z,4.09
2022-11-16T21:14:02.944Z,3.98
2022-11-16T21:16:30.117Z,4.02
2022-11-16T21:18:56.847Z,4.04
2022-11-16T21:21:24.657Z,3.94
2022-11-16T21:23:55.102Z,3.90
2022-11-16T21:26:24.861Z,3.95
2022-11-16T21:28:56.550Z,3.86
2022-11-16T21:31:28.389Z,3.91
2022-11-16T21:33:56.013Z,3.85
2022-11-16T21:36:25.347Z,3.87
2022-11-16T21:38:52.646Z,3.64
2022-11-16T21:41:20.287Z,3.68
2022-11-16T21:43:47.124Z,3.83
2022-11-16T21:46:19.170Z,3.79
2022-11-16T21:48:47.784Z,3.65
2022-11-16T21:51:18.364Z,3.80
2022-11-16T21:53:45.173Z,3.66
2022-11-16T21:56:14.374Z,3.76
2022-11-16T21:58:41.960Z,3.83
2022-11-16T22:01:09.524Z,3.86
2022-11-16T22:03:36.822Z,3.68
2022-11-16T22:06:31.566Z,3.73
2022-11-16T22:08:58.494Z,3.81
2022-11-16T22:11:25.439Z,3.71
2022-11-16T22:13:53.334Z,3.64
2022-11-16T22:16:21.752Z,3.68
2022-11-16T22:18:48.653Z,3.65
2022-11-16T22:21:15.281Z,3.62
2022-11-16T22:23:42.184Z,3.66
2022-11-16T22:26:14.109Z,3.73
2022-11-16T22:28:41.237Z,3.56
2022-11-16T22:31:15.068Z,3.49
2022-11-16T22:33:42.064Z,3.57
2022-11-16T22:36:10.418Z,3.68
2022-11-16T22:38:37.447Z,3.66
2022-11-16T22:41:04.527Z,3.56
2022-11-16T22:43:32.053Z,3.28
2022-11-16T22:46:00.495Z,3.48
2022-11-16T22:48:37.910Z,3.46
2022-11-16T22:51:14.019Z,3.58
2022-11-16T22:53:40.702Z,3.56
2022-11-16T22:56:08.627Z,3.65
2022-11-16T22:58:36.907Z,3.56
2022-11-16T23:01:04.351Z,3.63
2022-11-16T23:03:31.082Z,3.58
2022-11-16T23:05:58.042Z,3.59
2022-11-16T23:08:27.760Z,3.62
2022-11-16T23:11:20.765Z,3.66
2022-11-16T23:14:06.665Z,3.58
2022-11-16T23:16:36.237Z,3.48
2022-11-16T23:19:03.319Z,3.52
2022-11-16T23:21:56.134Z,3.47
2022-11-16T23:24:41.435Z,3.59
2022-11-16T23:27:27.835Z,3.58
2022-11-16T23:29:55.890Z,3.57
2022-11-16T23:32:22.487Z,3.58
2022-11-16T23:34:49.171Z,3.52
2022-11-16T23:37:15.775Z,3.58
2022-11-16T23:39:42.924Z,3.50
2022-11-16T23:42:28.785Z,3.53
2022-11-16T23:44:55.386Z,3.51
2022-11-16T23:47:22.412Z,3.48
2022-11-16T23:49:49.251Z,3.59
2022-11-16T23:52:15.882Z,3.42
2022-11-16T23:54:42.522Z,3.43
2022-11-16T23:57:09.298Z,3.22
2022-11-16T23:59:35.907Z,3.39
